createdAt,value
2022-07-25T00:00:15.356Z,24.39
2022-07-25T00:02:44.119Z,24.26
2022-07-25T00:05:12.949Z,24.27
2022-07-25T00:07:41.024Z,24.29
2022-07-25T00:10:09.991Z,24.29
2022-07-25T00:12:37.978Z,24.30
2022-07-25T00:15:07.155Z,24.28
2022-07-25T00:17:36.461Z,24.16
2022-07-25T00:20:05.820Z,24.10
2022-07-25T00:22:33.820Z,24.09
2022-07-25T00:25:01.938Z,24.08
2022-07-25T00:27:29.873Z,24.06
2022-07-25T00:29:57.844Z,24.01
2022-07-25T00:32:25.774Z,24.12
2022-07-25T00:34:55.061Z,23.94
2022-07-25T00:37:26.315Z,23.96
2022-07-25T00:39:54.261Z,23.77
2022-07-25T00:42:24.139Z,23.83
2022-07-25T00:44:52.580Z,23.96
2022-07-25T00:47:20.563Z,23.90
2022-07-25T00:49:48.766Z,23.85
2022-07-25T00:52:18.109Z,23.84
2022-07-25T00:54:46.073Z,23.85
2022-07-25T00:57:14.001Z,23.83
2022-07-25T00:59:42.037Z,23.66
2022-07-25T01:02:10.018Z,23.62
2022-07-25T01:04:37.959Z,23.63
2022-07-25T01:07:06.191Z,23.58
2022-07-25T01:09:35.572Z,23.55
2022-07-25T01:12:03.567Z,23.56
2022-07-25T01:14:31.766Z,23.46
2022-07-25T01:16:59.701Z,23.29
2022-07-25T01:19:27.663Z,23.31
2022-07-25T01:21:56.944Z,23.24
2022-07-25T01:24:24.943Z,23.28
2022-07-25T01:26:52.947Z,23.36
2022-07-25T01:29:20.894Z,23.25
2022-07-25T01:31:48.835Z,23.31
2022-07-25T01:34:16.807Z,23.31
2022-07-25T01:36:44.740Z,23.37
2022-07-25T01:39:14.091Z,23.10
2022-07-25T01:41:42.061Z,23.28
2022-07-25T01:44:10.378Z,23.30
2022-07-25T01:46:38.476Z,23.20
2022-07-25T01:49:06.592Z,23.19
2022-07-25T01:51:34.680Z,23.18
2022-07-25T01:54:02.849Z,23.11
2022-07-25T01:56:33.977Z,23.14
2022-07-25T01:59:01.884Z,23.11
2022-07-25T02:01:29.874Z,23.09
2022-07-25T02:03:57.871Z,23.09
2022-07-25T02:06:25.803Z,23.14
2022-07-25T02:08:53.780Z,23.10
2022-07-25T02:11:21.823Z,23.12
2022-07-25T02:13:51.293Z,23.20
2022-07-25T02:16:19.429Z,23.15
2022-07-25T02:18:57.502Z,23.10
2022-07-25T02:21:26.012Z,23.01
2022-07-25T02:23:54.332Z,23.03
2022-07-25T02:26:22.293Z,22.96
2022-07-25T02:28:54.301Z,22.91
2022-07-25T02:31:22.326Z,22.97
2022-07-25T02:33:50.321Z,22.92
2022-07-25T02:36:18.405Z,22.99
2022-07-25T02:38:46.466Z,22.92
2022-07-25T02:41:14.422Z,22.84
2022-07-25T02:43:42.366Z,22.73
2022-07-25T02:46:11.930Z,22.86
2022-07-25T02:48:39.988Z,22.84
2022-07-25T02:51:08.221Z,22.85
2022-07-25T02:53:56.216Z,22.93
2022-07-25T02:56:24.058Z,22.78
2022-07-25T02:58:52.499Z,22.74
2022-07-25T03:01:21.865Z,22.53
2022-07-25T03:03:49.882Z,22.62
2022-07-25T03:06:18.230Z,22.75
2022-07-25T03:08:46.129Z,22.77
2022-07-25T03:11:14.716Z,22.58
2022-07-25T03:13:42.686Z,22.73
2022-07-25T03:16:11.161Z,22.79
2022-07-25T03:18:40.487Z,22.64
2022-07-25T03:21:08.930Z,22.72
2022-07-25T03:23:36.952Z,22.58
2022-07-25T03:26:05.153Z,22.58
2022-07-25T03:28:33.081Z,22.62
2022-07-25T03:31:01.105Z,22.49
2022-07-25T03:33:29.106Z,22.54
2022-07-25T03:35:58.426Z,22.41
2022-07-25T03:38:26.395Z,22.48
2022-07-25T03:40:54.338Z,22.58
2022-07-25T03:43:22.293Z,22.61
2022-07-25T03:45:50.322Z,22.55
2022-07-25T03:48:18.233Z,22.61
2022-07-25T03:50:46.238Z,22.53
2022-07-25T03:53:16.517Z,22.56
2022-07-25T03:55:44.468Z,22.47
2022-07-25T03:58:12.401Z,22.46
2022-07-25T04:00:40.364Z,22.39
2022-07-25T04:03:08.354Z,22.37
2022-07-25T04:05:36.300Z,22.36
2022-07-25T04:08:04.333Z,22.42
2022-07-25T04:10:34.384Z,22.42
2022-07-25T04:13:03.501Z,22.36
2022-07-25T04:15:31.531Z,22.34
2022-07-25T04:17:59.504Z,22.46
2022-07-25T04:20:28.606Z,22.29
2022-07-25T04:22:57.364Z,22.22
2022-07-25T04:25:25.255Z,22.39
2022-07-25T04:27:54.590Z,22.40
2022-07-25T04:30:23.835Z,22.30
2022-07-25T04:32:53.182Z,22.59
2022-07-25T04:35:21.288Z,22.22
2022-07-25T04:37:49.322Z,22.36
2022-07-25T04:40:17.228Z,22.38
2022-07-25T04:43:11.692Z,22.33
2022-07-25T04:45:40.855Z,22.53
2022-07-25T04:48:09.409Z,22.53
2022-07-25T04:50:37.377Z,22.55
2022-07-25T04:53:05.601Z,22.68
2022-07-25T04:55:33.855Z,22.61
2022-07-25T04:58:01.830Z,22.58
2022-07-25T05:00:31.635Z,22.91
2022-07-25T05:03:00.018Z,22.83
2022-07-25T05:05:28.007Z,22.95
2022-07-25T05:07:57.970Z,22.88
2022-07-25T05:10:26.173Z,23.11
2022-07-25T05:12:54.163Z,23.17
2022-07-25T05:15:22.505Z,23.21
2022-07-25T05:17:51.816Z,23.10
2022-07-25T05:20:19.870Z,23.21
2022-07-25T05:22:47.936Z,23.23
2022-07-25T05:25:15.976Z,23.09
2022-07-25T05:27:43.881Z,23.28
2022-07-25T05:30:13.555Z,23.39
2022-07-25T05:32:42.622Z,23.34
2022-07-25T05:35:12.174Z,23.55
2022-07-25T05:37:40.199Z,23.58
2022-07-25T05:40:08.988Z,23.68
2022-07-25T05:42:36.958Z,24.13
2022-07-25T05:45:05.532Z,24.34
2022-07-25T05:47:33.493Z,25.72
2022-07-25T05:50:02.213Z,25.59
2022-07-25T05:52:31.630Z,25.34
2022-07-25T05:54:59.538Z,25.11
2022-07-25T05:57:27.601Z,25.07
2022-07-25T05:59:55.510Z,25.17
2022-07-25T06:02:23.622Z,25.09
2022-07-25T06:04:51.697Z,24.86
2022-07-25T06:07:19.637Z,24.93
2022-07-25T06:09:48.960Z,25.01
2022-07-25T06:12:16.994Z,25.09
2022-07-25T06:14:45.386Z,25.47
2022-07-25T06:17:13.712Z,25.46
2022-07-25T06:19:41.719Z,25.49
2022-07-25T06:22:11.271Z,25.46
2022-07-25T06:24:39.684Z,25.68
2022-07-25T06:27:09.747Z,25.81
2022-07-25T06:29:39.381Z,25.84
2022-07-25T06:32:07.736Z,25.72
2022-07-25T06:34:35.818Z,25.93
2022-07-25T06:37:04.046Z,25.99
2022-07-25T06:39:32.027Z,26.10
2022-07-25T06:42:00.966Z,26.01
2022-07-25T06:44:36.514Z,26.28
2022-07-25T06:47:05.701Z,26.33
2022-07-25T06:49:33.619Z,26.47
2022-07-25T06:52:01.552Z,26.50
2022-07-25T06:54:29.500Z,26.62
2022-07-25T06:56:57.611Z,26.66
2022-07-25T06:59:26.173Z,26.73
2022-07-25T07:01:55.689Z,26.98
2022-07-25T07:04:23.632Z,26.95
2022-07-25T07:06:51.595Z,27.03
2022-07-25T07:09:19.516Z,26.93
2022-07-25T07:11:47.497Z,27.08
2022-07-25T07:14:15.405Z,27.10
2022-07-25T07:16:43.415Z,27.12
2022-07-25T07:19:14.571Z,27.62
2022-07-25T07:21:43.726Z,27.74
2022-07-25T07:24:23.399Z,27.53
2022-07-25T07:26:52.651Z,27.56
2022-07-25T07:29:20.626Z,27.87
2022-07-25T07:31:48.676Z,27.63
2022-07-25T07:34:18.173Z,27.92
2022-07-25T07:36:46.128Z,28.08
2022-07-25T07:39:14.671Z,28.10
2022-07-25T07:41:42.588Z,28.16
2022-07-25T07:44:10.562Z,28.05
2022-07-25T07:46:38.643Z,28.17
2022-07-25T07:49:06.936Z,28.60
2022-07-25T07:51:36.511Z,28.67
2022-07-25T07:54:25.040Z,28.49
2022-07-25T07:56:52.993Z,28.68
2022-07-25T07:59:22.142Z,28.81
2022-07-25T08:01:50.115Z,28.82
2022-07-25T08:04:18.147Z,28.92
2022-07-25T08:06:47.504Z,28.82
2022-07-25T08:09:15.527Z,28.84
2022-07-25T08:11:43.439Z,29.22
2022-07-25T08:14:11.365Z,29.19
2022-07-25T08:16:39.369Z,29.24
2022-07-25T08:19:07.488Z,29.45
2022-07-25T08:21:35.559Z,29.54
2022-07-25T08:24:05.873Z,29.20
2022-07-25T08:26:37.047Z,29.26
2022-07-25T08:29:18.689Z,29.55
2022-07-25T08:31:47.559Z,29.68
2022-07-25T08:34:15.695Z,29.92
2022-07-25T08:36:44.298Z,29.97
2022-07-25T08:39:18.629Z,29.92
2022-07-25T08:41:46.934Z,30.12
2022-07-25T08:44:16.972Z,29.94
2022-07-25T08:46:46.673Z,29.97
2022-07-25T08:49:15.439Z,30.22
2022-07-25T08:51:43.901Z,30.20
2022-07-25T08:54:12.081Z,30.44
2022-07-25T08:56:43.627Z,30.58
2022-07-25T08:59:11.778Z,30.68
2022-07-25T09:01:41.399Z,30.76
2022-07-25T09:04:12.177Z,30.80
2022-07-25T09:06:50.861Z,30.79
2022-07-25T09:09:19.707Z,30.93
2022-07-25T09:11:51.078Z,31.03
2022-07-25T09:14:22.374Z,31.19
2022-07-25T09:16:50.773Z,31.67
2022-07-25T09:19:22.862Z,32.26
2022-07-25T09:22:03.617Z,32.68
2022-07-25T09:24:38.266Z,33.49
2022-07-25T09:27:13.914Z,34.03
2022-07-25T09:29:43.806Z,34.06
2022-07-25T09:32:19.425Z,35.46
2022-07-25T09:34:49.337Z,35.92
2022-07-25T09:37:26.371Z,36.33
2022-07-25T09:39:56.633Z,36.66
2022-07-25T09:42:30.588Z,37.26
2022-07-25T09:45:00.538Z,36.88
2022-07-25T09:47:29.030Z,37.10
2022-07-25T09:49:57.888Z,37.16
2022-07-25T09:52:26.142Z,37.61
2022-07-25T09:54:55.584Z,36.81
2022-07-25T09:57:27.097Z,37.24
2022-07-25T09:59:56.546Z,37.77
2022-07-25T10:02:39.190Z,38.46
2022-07-25T10:05:15.150Z,37.57
2022-07-25T10:07:47.589Z,37.73
2022-07-25T10:10:30.940Z,38.24
2022-07-25T10:13:09.885Z,38.13
2022-07-25T10:15:45.513Z,38.51
2022-07-25T10:18:14.620Z,38.65
2022-07-25T10:20:43.075Z,37.95
2022-07-25T10:23:25.648Z,38.47
2022-07-25T10:26:04.813Z,38.52
2022-07-25T10:28:44.765Z,38.60
2022-07-25T10:31:21.708Z,38.69
2022-07-25T10:33:52.863Z,38.62
2022-07-25T10:36:21.640Z,38.84
2022-07-25T10:38:52.671Z,38.32
2022-07-25T10:41:26.025Z,37.90
2022-07-25T10:44:00.743Z,38.52
2022-07-25T10:46:32.563Z,38.32
2022-07-25T10:49:02.852Z,39.04
2022-07-25T10:51:35.107Z,39.06
2022-07-25T10:54:17.384Z,38.81
2022-07-25T10:56:54.640Z,38.29
2022-07-25T10:59:31.132Z,38.58
2022-07-25T11:02:01.290Z,39.14
2022-07-25T11:04:30.477Z,38.84
2022-07-25T11:07:12.593Z,38.59
2022-07-25T11:09:41.677Z,38.86
2022-07-25T11:12:10.794Z,39.00
2022-07-25T11:14:41.439Z,39.16
2022-07-25T11:17:16.372Z,39.15
2022-07-25T11:19:46.472Z,39.22
2022-07-25T11:22:14.454Z,39.27
2022-07-25T11:24:44.452Z,38.68
2022-07-25T11:27:15.373Z,38.02
2022-07-25T11:29:43.451Z,38.55
2022-07-25T11:32:13.246Z,38.08
2022-07-25T11:34:45.174Z,38.13
2022-07-25T11:37:14.687Z,38.35
2022-07-25T11:39:44.566Z,38.76
2022-07-25T11:42:16.351Z,38.46
2022-07-25T11:44:48.068Z,38.09
2022-07-25T11:47:32.192Z,38.79
2022-07-25T11:50:05.279Z,39.06
2022-07-25T11:52:34.730Z,38.63
2022-07-25T11:55:04.440Z,38.08
2022-07-25T11:57:34.905Z,38.71
2022-07-25T12:00:03.671Z,38.82
2022-07-25T12:02:40.850Z,38.58
2022-07-25T12:05:12.493Z,38.16
2022-07-25T12:07:44.851Z,38.19
2022-07-25T12:10:17.449Z,37.49
2022-07-25T12:12:46.387Z,37.83
2022-07-25T12:15:15.270Z,38.26
2022-07-25T12:17:44.444Z,37.86
2022-07-25T12:20:17.420Z,38.74
2022-07-25T12:22:46.112Z,38.62
2022-07-25T12:25:14.940Z,38.41
2022-07-25T12:27:43.116Z,38.53
2022-07-25T12:30:13.057Z,38.87
2022-07-25T12:32:41.623Z,38.22
2022-07-25T12:35:12.739Z,38.13
2022-07-25T12:37:43.937Z,38.03
2022-07-25T12:40:14.270Z,38.07
2022-07-25T12:42:43.089Z,38.91
2022-07-25T12:45:12.383Z,38.66
2022-07-25T12:47:41.220Z,38.82
2022-07-25T12:50:11.026Z,38.19
2022-07-25T12:52:39.533Z,38.22
2022-07-25T12:55:11.461Z,37.17
2022-07-25T12:57:40.259Z,37.17
2022-07-25T13:00:11.085Z,37.14
2022-07-25T13:02:39.792Z,36.97
2022-07-25T13:05:09.135Z,37.01
2022-07-25T13:07:37.457Z,37.24
2022-07-25T13:10:07.379Z,37.53
2022-07-25T13:12:36.905Z,37.40
2022-07-25T13:15:05.852Z,37.55
2022-07-25T13:17:34.365Z,37.59
2022-07-25T13:20:02.948Z,37.33
2022-07-25T13:22:31.203Z,37.34
2022-07-25T13:24:59.116Z,36.69
2022-07-25T13:27:27.291Z,37.00
2022-07-25T13:29:58.102Z,36.85
2022-07-25T13:32:28.397Z,36.88
2022-07-25T13:34:56.655Z,36.69
2022-07-25T13:37:24.646Z,36.85
2022-07-25T13:39:52.920Z,36.45
2022-07-25T13:42:20.966Z,36.70
2022-07-25T13:44:49.107Z,36.64
2022-07-25T13:47:18.654Z,36.83
2022-07-25T13:49:46.745Z,37.02
2022-07-25T13:52:14.729Z,37.24
2022-07-25T13:54:42.795Z,37.18
2022-07-25T13:57:11.200Z,37.28
2022-07-25T13:59:39.599Z,37.22
2022-07-25T14:02:07.962Z,37.06
2022-07-25T14:04:37.833Z,37.17
2022-07-25T14:07:07.339Z,36.86
2022-07-25T14:09:35.732Z,37.15
2022-07-25T14:12:03.731Z,37.07
2022-07-25T14:14:31.720Z,37.23
2022-07-25T14:16:59.778Z,37.24
2022-07-25T14:19:27.706Z,37.27
2022-07-25T14:21:57.050Z,37.28
2022-07-25T14:24:24.979Z,37.13
2022-07-25T14:26:54.010Z,37.12
2022-07-25T14:29:25.952Z,36.87
2022-07-25T14:31:57.004Z,36.72
2022-07-25T14:34:25.034Z,37.07
2022-07-25T14:36:53.020Z,36.79
2022-07-25T14:39:22.336Z,36.68
2022-07-25T14:41:50.407Z,36.68
2022-07-25T14:44:18.615Z,36.49
2022-07-25T14:46:49.019Z,36.21
2022-07-25T14:49:17.661Z,36.22
2022-07-25T14:51:46.124Z,36.40
2022-07-25T14:54:14.684Z,36.23
2022-07-25T14:56:44.427Z,36.33
2022-07-25T14:59:12.910Z,36.37
2022-07-25T15:01:41.242Z,35.91
2022-07-25T15:04:09.483Z,35.96
2022-07-25T15:06:37.516Z,36.08
2022-07-25T15:09:05.859Z,36.05
2022-07-25T15:11:34.073Z,36.02
2022-07-25T15:14:03.364Z,35.88
2022-07-25T15:16:31.433Z,36.02
2022-07-25T15:19:15.927Z,35.98
2022-07-25T15:21:44.716Z,35.99
2022-07-25T15:24:12.867Z,36.37
2022-07-25T15:26:41.124Z,36.08
2022-07-25T15:29:11.989Z,36.31
2022-07-25T15:31:40.376Z,36.26
2022-07-25T15:34:08.686Z,36.28
2022-07-25T15:36:36.694Z,36.34
2022-07-25T15:39:05.179Z,36.43
2022-07-25T15:41:33.409Z,36.19
2022-07-25T15:44:01.631Z,36.10
2022-07-25T15:46:31.221Z,36.19
2022-07-25T15:48:59.328Z,36.53
2022-07-25T15:51:27.354Z,36.74
2022-07-25T15:53:55.260Z,36.48
2022-07-25T15:56:23.989Z,36.72
2022-07-25T15:58:52.315Z,36.33
2022-07-25T16:01:20.374Z,36.42
2022-07-25T16:03:49.940Z,36.55
2022-07-25T16:06:20.713Z,36.59
2022-07-25T16:08:50.119Z,36.50
2022-07-25T16:11:24.886Z,36.04
2022-07-25T16:13:52.764Z,36.15
2022-07-25T16:16:22.052Z,35.99
2022-07-25T16:18:52.032Z,35.83
2022-07-25T16:21:19.944Z,36.03
2022-07-25T16:23:48.114Z,35.70
2022-07-25T16:26:16.135Z,35.68
2022-07-25T16:28:45.320Z,35.66
2022-07-25T16:31:13.400Z,35.48
2022-07-25T16:33:41.309Z,35.92
2022-07-25T16:36:12.199Z,35.96
2022-07-25T16:38:40.598Z,35.65
2022-07-25T16:41:08.647Z,35.51
2022-07-25T16:43:36.638Z,35.42
2022-07-25T16:46:04.711Z,35.32
2022-07-25T16:48:32.890Z,35.33
2022-07-25T16:51:00.993Z,35.54
2022-07-25T16:53:30.341Z,35.09
2022-07-25T16:55:58.530Z,33.94
2022-07-25T16:58:27.002Z,33.51
2022-07-25T17:00:55.070Z,33.27
2022-07-25T17:03:23.132Z,32.87
2022-07-25T17:05:51.758Z,32.14
2022-07-25T17:08:19.854Z,31.92
2022-07-25T17:10:49.377Z,31.81
2022-07-25T17:13:17.365Z,32.19
2022-07-25T17:15:45.571Z,32.17
2022-07-25T17:18:14.157Z,32.04
2022-07-25T17:20:42.104Z,32.40
2022-07-25T17:23:10.047Z,32.06
2022-07-25T17:25:38.367Z,32.01
2022-07-25T17:28:07.998Z,31.86
2022-07-25T17:30:36.217Z,30.22
2022-07-25T17:33:04.238Z,30.28
2022-07-25T17:35:33.069Z,30.76
2022-07-25T17:38:01.043Z,30.48
2022-07-25T17:40:29.068Z,30.39
2022-07-25T17:42:57.655Z,30.06
2022-07-25T17:45:27.322Z,30.03
2022-07-25T17:47:55.351Z,29.73
2022-07-25T17:50:29.169Z,29.76
2022-07-25T17:52:59.489Z,29.69
2022-07-25T17:55:28.722Z,29.66
2022-07-25T17:57:59.503Z,29.42
2022-07-25T18:00:28.943Z,29.64
2022-07-25T18:02:56.951Z,29.57
2022-07-25T18:05:25.107Z,29.31
2022-07-25T18:07:53.894Z,29.14
2022-07-25T18:10:22.571Z,29.24
2022-07-25T18:12:51.221Z,29.15
2022-07-25T18:15:19.354Z,29.27
2022-07-25T18:17:49.604Z,29.36
2022-07-25T18:20:20.431Z,29.20
2022-07-25T18:22:48.423Z,29.13
2022-07-25T18:25:17.085Z,29.15
2022-07-25T18:27:46.616Z,28.96
2022-07-25T18:30:16.821Z,28.86
2022-07-25T18:32:45.640Z,28.79
2022-07-25T18:35:15.163Z,29.11
2022-07-25T18:37:43.796Z,28.67
2022-07-25T18:40:13.587Z,28.65
2022-07-25T18:42:41.794Z,28.76
2022-07-25T18:45:11.358Z,28.76
2022-07-25T18:47:40.300Z,28.92
2022-07-25T18:50:09.151Z,28.88
2022-07-25T18:52:38.779Z,28.49
2022-07-25T18:55:09.843Z,28.90
2022-07-25T18:57:38.031Z,28.80
2022-07-25T19:00:07.432Z,28.51
2022-07-25T19:02:35.424Z,28.53
2022-07-25T19:05:03.456Z,28.79
2022-07-25T19:07:31.456Z,28.74
2022-07-25T19:10:00.775Z,28.85
2022-07-25T19:12:28.888Z,28.69
2022-07-25T19:14:57.313Z,28.57
2022-07-25T19:17:25.325Z,28.75
2022-07-25T19:19:53.676Z,28.82
2022-07-25T19:22:21.995Z,28.57
2022-07-25T19:24:49.984Z,28.75
2022-07-25T19:27:19.779Z,28.36
2022-07-25T19:29:47.829Z,28.56
2022-07-25T19:32:16.116Z,28.58
2022-07-25T19:34:46.082Z,28.64
2022-07-25T19:37:14.163Z,28.54
2022-07-25T19:39:42.063Z,28.66
2022-07-25T19:42:12.215Z,28.61
2022-07-25T19:44:41.641Z,28.13
2022-07-25T19:47:11.828Z,28.34
2022-07-25T19:49:40.636Z,28.48
2022-07-25T19:52:09.420Z,28.37
2022-07-25T19:54:37.521Z,28.10
2022-07-25T19:57:05.793Z,28.25
2022-07-25T19:59:33.832Z,28.45
2022-07-25T20:02:03.773Z,28.31
2022-07-25T20:04:31.977Z,28.12
2022-07-25T20:07:02.219Z,28.17
2022-07-25T20:09:30.390Z,28.25
2022-07-25T20:11:58.810Z,28.23
2022-07-25T20:14:27.076Z,28.15
2022-07-25T20:16:55.195Z,28.03
2022-07-25T20:19:25.367Z,28.22
2022-07-25T20:21:53.520Z,27.75
2022-07-25T20:24:21.952Z,27.74
2022-07-25T20:26:50.261Z,27.45
2022-07-25T20:29:18.286Z,27.32
2022-07-25T20:31:46.332Z,27.26
2022-07-25T20:34:14.625Z,27.42
2022-07-25T20:36:44.107Z,27.00
2022-07-25T20:39:13.218Z,27.28
2022-07-25T20:41:41.814Z,27.09
2022-07-25T20:44:13.214Z,27.02
2022-07-25T20:46:41.352Z,27.08
2022-07-25T20:49:10.754Z,26.95
2022-07-25T20:51:40.857Z,27.07
2022-07-25T20:54:10.614Z,26.80
2022-07-25T20:56:38.578Z,26.80
2022-07-25T20:59:06.966Z,26.53
2022-07-25T21:01:35.447Z,26.32
2022-07-25T21:04:07.447Z,26.21
2022-07-25T21:06:36.737Z,26.18
2022-07-25T21:09:05.859Z,26.30
2022-07-25T21:11:35.964Z,26.14
2022-07-25T21:14:04.494Z,26.23
2022-07-25T21:16:33.455Z,26.22
2022-07-25T21:19:01.492Z,26.38
2022-07-25T21:21:29.490Z,26.08
2022-07-25T21:23:57.614Z,26.14
2022-07-25T21:26:25.563Z,26.51
2022-07-25T21:28:54.866Z,26.36
2022-07-25T21:31:23.557Z,26.33
2022-07-25T21:33:51.703Z,26.36
2022-07-25T21:36:19.642Z,26.28
2022-07-25T21:38:47.589Z,26.18
2022-07-25T21:41:16.012Z,26.52
2022-07-25T21:43:44.211Z,26.14
2022-07-25T21:46:13.647Z,26.03
2022-07-25T21:48:59.188Z,26.01
2022-07-25T21:51:30.413Z,25.71
2022-07-25T21:54:08.761Z,26.02
2022-07-25T21:56:36.763Z,25.48
2022-07-25T21:59:05.401Z,25.39
2022-07-25T22:01:35.035Z,25.32
2022-07-25T22:04:03.170Z,25.17
2022-07-25T22:06:31.205Z,24.95
2022-07-25T22:08:59.216Z,24.89
2022-07-25T22:11:42.892Z,25.23
2022-07-25T22:14:14.489Z,25.32
2022-07-25T22:16:44.155Z,25.07
2022-07-25T22:19:12.167Z,25.27
2022-07-25T22:21:40.556Z,25.25
2022-07-25T22:24:09.471Z,25.27
2022-07-25T22:26:37.722Z,24.77
2022-07-25T22:29:06.127Z,24.24
2022-07-25T22:31:34.401Z,23.82
2022-07-25T22:34:03.815Z,23.99
2022-07-25T22:36:31.768Z,23.79
2022-07-25T22:38:59.720Z,24.00
2022-07-25T22:41:27.879Z,24.15
2022-07-25T22:43:58.830Z,24.07
2022-07-25T22:46:28.525Z,23.83
2022-07-25T22:48:57.471Z,24.00
2022-07-25T22:51:27.479Z,23.90
2022-07-25T22:53:55.746Z,24.36
2022-07-25T22:56:24.064Z,24.46
2022-07-25T22:58:52.033Z,24.16
2022-07-25T23:01:20.468Z,24.41
2022-07-25T23:03:50.395Z,23.95
2022-07-25T23:06:19.249Z,23.62
2022-07-25T23:08:48.999Z,23.59
2022-07-25T23:11:17.426Z,23.70
2022-07-25T23:13:45.413Z,23.84
2022-07-25T23:16:13.374Z,23.87
2022-07-25T23:18:41.488Z,23.71
2022-07-25T23:21:09.528Z,23.68
2022-07-25T23:23:37.563Z,23.53
2022-07-25T23:26:07.023Z,23.54
2022-07-25T23:28:35.053Z,23.48
2022-07-25T23:31:03.208Z,23.35
2022-07-25T23:33:31.839Z,23.18
2022-07-25T23:36:00.272Z,23.17
2022-07-25T23:38:28.451Z,23.33
2022-07-25T23:40:56.566Z,23.24
2022-07-25T23:43:53.053Z,23.16
2022-07-25T23:46:14.059Z,23.51
2022-07-25T23:48:43.144Z,23.57
2022-07-25T23:51:11.254Z,23.39
2022-07-25T23:53:39.260Z,23.46
2022-07-25T23:56:07.405Z,23.49
2022-07-25T23:58:36.668Z,23.73
